sensor_id;sensor_type;location;lat;lon;timestamp;P1;durP1;ratioP1;P2;durP2;ratioP2
34505;SDS011;20748;42.632;23.198;2022-10-26T00:00:42;18.08;;;5.97;;
34505;SDS011;20748;42.632;23.198;2022-10-26T00:03:15;11.68;;;4.95;;
34505;SDS011;20748;42.632;23.198;2022-10-26T00:05:48;9.05;;;4.30;;
34505;SDS011;20748;42.632;23.198;2022-10-26T00:08:20;10.55;;;4.57;;
34505;SDS011;20748;42.632;23.198;2022-10-26T00:10:55;12.38;;;4.78;;
34505;SDS011;20748;42.632;23.198;2022-10-26T00:13:28;10.38;;;4.93;;
34505;SDS011;20748;42.632;23.198;2022-10-26T00:16:00;13.07;;;4.80;;
34505;SDS011;20748;42.632;23.198;2022-10-26T00:18:38;21.40;;;4.55;;
34505;SDS011;20748;42.632;23.198;2022-10-26T00:21:11;11.32;;;5.07;;
34505;SDS011;20748;42.632;23.198;2022-10-26T00:23:44;14.70;;;4.60;;
34505;SDS011;20748;42.632;23.198;2022-10-26T00:26:16;8.38;;;4.35;;
34505;SDS011;20748;42.632;23.198;2022-10-26T00:28:51;13.10;;;4.82;;
34505;SDS011;20748;42.632;23.198;2022-10-26T00:31:24;11.77;;;4.40;;
34505;SDS011;20748;42.632;23.198;2022-10-26T00:33:57;11.70;;;4.47;;
34505;SDS011;20748;42.632;23.198;2022-10-26T00:36:29;10.63;;;4.82;;
34505;SDS011;20748;42.632;23.198;2022-10-26T00:39:01;14.00;;;5.28;;
34505;SDS011;20748;42.632;23.198;2022-10-26T00:41:34;10.77;;;4.15;;
34505;SDS011;20748;42.632;23.198;2022-10-26T00:47:33;12.38;;;3.58;;
34505;SDS011;20748;42.632;23.198;2022-10-26T00:50:10;10.10;;;4.07;;
34505;SDS011;20748;42.632;23.198;2022-10-26T00:52:48;12.55;;;4.60;;
34505;SDS011;20748;42.632;23.198;2022-10-26T00:55:23;9.05;;;3.72;;
34505;SDS011;20748;42.632;23.198;2022-10-26T00:58:00;9.32;;;4.53;;
34505;SDS011;20748;42.632;23.198;2022-10-26T01:00:36;9.40;;;4.40;;
34505;SDS011;20748;42.632;23.198;2022-10-26T01:03:11;15.27;;;4.00;;
34505;SDS011;20748;42.632;23.198;2022-10-26T01:05:45;9.85;;;4.10;;
34505;SDS011;20748;42.632;23.198;2022-10-26T01:08:20;10.02;;;4.10;;
34505;SDS011;20748;42.632;23.198;2022-10-26T01:10:52;10.95;;;3.83;;
34505;SDS011;20748;42.632;23.198;2022-10-26T01:13:25;10.13;;;3.45;;
34505;SDS011;20748;42.632;23.198;2022-10-26T01:16:03;11.43;;;3.90;;
34505;SDS011;20748;42.632;23.198;2022-10-26T01:18:47;6.65;;;3.38;;
34505;SDS011;20748;42.632;23.198;2022-10-26T01:24:45;8.18;;;3.40;;
34505;SDS011;20748;42.632;23.198;2022-10-26T01:27:33;7.68;;;3.42;;
34505;SDS011;20748;42.632;23.198;2022-10-26T01:30:21;9.18;;;3.50;;
34505;SDS011;20748;42.632;23.198;2022-10-26T01:33:04;8.55;;;3.67;;
34505;SDS011;20748;42.632;23.198;2022-10-26T01:36:01;6.53;;;2.90;;
34505;SDS011;20748;42.632;23.198;2022-10-26T01:38:46;11.93;;;3.90;;
34505;SDS011;20748;42.632;23.198;2022-10-26T01:41:27;10.23;;;5.28;;
34505;SDS011;20748;42.632;23.198;2022-10-26T01:44:03;9.68;;;3.92;;
34505;SDS011;20748;42.632;23.198;2022-10-26T01:46:41;10.82;;;3.80;;
34505;SDS011;20748;42.632;23.198;2022-10-26T01:49:19;9.50;;;3.47;;
34505;SDS011;20748;42.632;23.198;2022-10-26T01:51:53;12.40;;;5.22;;
34505;SDS011;20748;42.632;23.198;2022-10-26T01:54:26;11.88;;;5.43;;
34505;SDS011;20748;42.632;23.198;2022-10-26T01:56:59;11.10;;;4.57;;
34505;SDS011;20748;42.632;23.198;2022-10-26T01:59:47;10.35;;;4.65;;
34505;SDS011;20748;42.632;23.198;2022-10-26T02:02:46;10.38;;;5.22;;
34505;SDS011;20748;42.632;23.198;2022-10-26T02:05:51;14.38;;;5.20;;
34505;SDS011;20748;42.632;23.198;2022-10-26T02:08:45;10.90;;;5.05;;
34505;SDS011;20748;42.632;23.198;2022-10-26T02:11:31;12.55;;;5.32;;
34505;SDS011;20748;42.632;23.198;2022-10-26T02:14:11;13.50;;;5.13;;
34505;SDS011;20748;42.632;23.198;2022-10-26T02:16:52;8.38;;;3.83;;
34505;SDS011;20748;42.632;23.198;2022-10-26T02:19:31;10.68;;;4.20;;
34505;SDS011;20748;42.632;23.198;2022-10-26T02:24:43;13.27;;;4.85;;
34505;SDS011;20748;42.632;23.198;2022-10-26T02:27:19;9.52;;;3.78;;
34505;SDS011;20748;42.632;23.198;2022-10-26T02:29:55;8.95;;;4.63;;
34505;SDS011;20748;42.632;23.198;2022-10-26T02:32:29;12.00;;;3.30;;
34505;SDS011;20748;42.632;23.198;2022-10-26T02:35:07;11.50;;;3.85;;
34505;SDS011;20748;42.632;23.198;2022-10-26T02:37:40;9.82;;;3.75;;
34505;SDS011;20748;42.632;23.198;2022-10-26T02:40:15;11.60;;;3.80;;
34505;SDS011;20748;42.632;23.198;2022-10-26T02:42:52;7.85;;;3.03;;
34505;SDS011;20748;42.632;23.198;2022-10-26T02:45:26;10.13;;;4.82;;
34505;SDS011;20748;42.632;23.198;2022-10-26T02:48:03;13.43;;;4.68;;
34505;SDS011;20748;42.632;23.198;2022-10-26T02:50:39;13.63;;;5.50;;
34505;SDS011;20748;42.632;23.198;2022-10-26T02:53:21;10.15;;;4.70;;
34505;SDS011;20748;42.632;23.198;2022-10-26T02:55:57;10.93;;;4.47;;
34505;SDS011;20748;42.632;23.198;2022-10-26T02:58:36;10.07;;;4.80;;
34505;SDS011;20748;42.632;23.198;2022-10-26T03:01:13;18.43;;;4.70;;
34505;SDS011;20748;42.632;23.198;2022-10-26T03:03:46;9.15;;;3.72;;
34505;SDS011;20748;42.632;23.198;2022-10-26T03:06:20;10.77;;;4.57;;
34505;SDS011;20748;42.632;23.198;2022-10-26T03:08:53;10.80;;;5.10;;
34505;SDS011;20748;42.632;23.198;2022-10-26T03:11:26;19.80;;;11.52;;
34505;SDS011;20748;42.632;23.198;2022-10-26T03:13:58;11.75;;;4.20;;
34505;SDS011;20748;42.632;23.198;2022-10-26T03:16:30;7.57;;;3.80;;
34505;SDS011;20748;42.632;23.198;2022-10-26T03:19:03;10.38;;;4.22;;
34505;SDS011;20748;42.632;23.198;2022-10-26T03:21:36;8.68;;;5.90;;
34505;SDS011;20748;42.632;23.198;2022-10-26T03:24:09;7.57;;;4.28;;
34505;SDS011;20748;42.632;23.198;2022-10-26T03:26:41;9.18;;;3.63;;
34505;SDS011;20748;42.632;23.198;2022-10-26T03:29:13;12.50;;;3.40;;
34505;SDS011;20748;42.632;23.198;2022-10-26T03:31:45;10.18;;;4.13;;
34505;SDS011;20748;42.632;23.198;2022-10-26T03:34:19;14.65;;;5.30;;
34505;SDS011;20748;42.632;23.198;2022-10-26T03:36:52;13.05;;;4.45;;
34505;SDS011;20748;42.632;23.198;2022-10-26T03:39:24;9.30;;;3.08;;
34505;SDS011;20748;42.632;23.198;2022-10-26T03:41:56;13.75;;;4.10;;
34505;SDS011;20748;42.632;23.198;2022-10-26T03:44:29;10.63;;;3.83;;
34505;SDS011;20748;42.632;23.198;2022-10-26T03:47:02;12.13;;;4.22;;
34505;SDS011;20748;42.632;23.198;2022-10-26T03:49:34;7.82;;;4.13;;
34505;SDS011;20748;42.632;23.198;2022-10-26T03:52:07;11.57;;;4.40;;
34505;SDS011;20748;42.632;23.198;2022-10-26T03:54:39;8.55;;;3.90;;
34505;SDS011;20748;42.632;23.198;2022-10-26T03:57:12;9.27;;;4.20;;
34505;SDS011;20748;42.632;23.198;2022-10-26T03:59:44;10.27;;;4.13;;
34505;SDS011;20748;42.632;23.198;2022-10-26T04:02:16;7.63;;;3.17;;
34505;SDS011;20748;42.632;23.198;2022-10-26T04:04:48;10.07;;;4.38;;
34505;SDS011;20748;42.632;23.198;2022-10-26T04:07:21;10.45;;;5.40;;
34505;SDS011;20748;42.632;23.198;2022-10-26T04:09:54;12.18;;;5.55;;
34505;SDS011;20748;42.632;23.198;2022-10-26T04:12:26;9.52;;;5.15;;
34505;SDS011;20748;42.632;23.198;2022-10-26T04:14:59;13.27;;;4.55;;
34505;SDS011;20748;42.632;23.198;2022-10-26T04:17:31;14.05;;;3.80;;
34505;SDS011;20748;42.632;23.198;2022-10-26T04:20:04;7.57;;;3.60;;
34505;SDS011;20748;42.632;23.198;2022-10-26T04:22:37;11.73;;;4.70;;
34505;SDS011;20748;42.632;23.198;2022-10-26T04:25:10;12.05;;;5.80;;
34505;SDS011;20748;42.632;23.198;2022-10-26T04:27:43;12.48;;;5.50;;
34505;SDS011;20748;42.632;23.198;2022-10-26T04:30:16;10.35;;;4.55;;
34505;SDS011;20748;42.632;23.198;2022-10-26T04:32:48;6.82;;;3.95;;
34505;SDS011;20748;42.632;23.198;2022-10-26T04:35:21;9.13;;;3.90;;
34505;SDS011;20748;42.632;23.198;2022-10-26T04:37:56;8.90;;;3.67;;
34505;SDS011;20748;42.632;23.198;2022-10-26T04:40:30;9.93;;;3.95;;
34505;SDS011;20748;42.632;23.198;2022-10-26T04:43:03;9.65;;;3.70;;
34505;SDS011;20748;42.632;23.198;2022-10-26T04:45:36;11.82;;;4.28;;
34505;SDS011;20748;42.632;23.198;2022-10-26T04:48:08;8.43;;;3.60;;
34505;SDS011;20748;42.632;23.198;2022-10-26T04:50:42;8.63;;;4.32;;
34505;SDS011;20748;42.632;23.198;2022-10-26T04:53:15;13.85;;;4.53;;
34505;SDS011;20748;42.632;23.198;2022-10-26T04:55:48;9.48;;;4.50;;
34505;SDS011;20748;42.632;23.198;2022-10-26T04:58:20;8.75;;;4.45;;
34505;SDS011;20748;42.632;23.198;2022-10-26T05:00:52;10.05;;;5.20;;
34505;SDS011;20748;42.632;23.198;2022-10-26T05:03:25;9.90;;;4.75;;
34505;SDS011;20748;42.632;23.198;2022-10-26T05:05:57;11.55;;;5.00;;
34505;SDS011;20748;42.632;23.198;2022-10-26T05:08:30;8.15;;;4.70;;
34505;SDS011;20748;42.632;23.198;2022-10-26T05:11:03;11.35;;;5.03;;
34505;SDS011;20748;42.632;23.198;2022-10-26T05:13:35;12.60;;;5.13;;
34505;SDS011;20748;42.632;23.198;2022-10-26T05:16:07;10.35;;;6.07;;
34505;SDS011;20748;42.632;23.198;2022-10-26T05:18:40;13.35;;;5.80;;
34505;SDS011;20748;42.632;23.198;2022-10-26T05:21:12;10.63;;;4.60;;
34505;SDS011;20748;42.632;23.198;2022-10-26T05:23:50;12.65;;;5.43;;
34505;SDS011;20748;42.632;23.198;2022-10-26T05:26:24;7.88;;;4.53;;
34505;SDS011;20748;42.632;23.198;2022-10-26T05:28:56;9.77;;;4.75;;
34505;SDS011;20748;42.632;23.198;2022-10-26T05:31:29;9.18;;;5.07;;
34505;SDS011;20748;42.632;23.198;2022-10-26T05:34:01;14.43;;;4.35;;
34505;SDS011;20748;42.632;23.198;2022-10-26T05:36:33;13.23;;;4.45;;
34505;SDS011;20748;42.632;23.198;2022-10-26T05:39:07;7.95;;;4.25;;
34505;SDS011;20748;42.632;23.198;2022-10-26T05:41:39;11.57;;;4.70;;
34505;SDS011;20748;42.632;23.198;2022-10-26T05:44:11;11.70;;;4.68;;
34505;SDS011;20748;42.632;23.198;2022-10-26T05:46:45;12.82;;;4.30;;
34505;SDS011;20748;42.632;23.198;2022-10-26T05:49:18;15.93;;;5.45;;
34505;SDS011;20748;42.632;23.198;2022-10-26T05:51:50;11.32;;;5.00;;
34505;SDS011;20748;42.632;23.198;2022-10-26T05:54:23;9.75;;;3.78;;
34505;SDS011;20748;42.632;23.198;2022-10-26T05:56:56;10.35;;;3.90;;
34505;SDS011;20748;42.632;23.198;2022-10-26T05:59:28;13.45;;;4.03;;
34505;SDS011;20748;42.632;23.198;2022-10-26T06:02:03;10.23;;;3.85;;
34505;SDS011;20748;42.632;23.198;2022-10-26T06:04:47;6.97;;;3.95;;
34505;SDS011;20748;42.632;23.198;2022-10-26T06:07:20;13.40;;;3.83;;
34505;SDS011;20748;42.632;23.198;2022-10-26T06:09:54;6.55;;;3.35;;
34505;SDS011;20748;42.632;23.198;2022-10-26T06:12:27;6.35;;;3.55;;
34505;SDS011;20748;42.632;23.198;2022-10-26T06:14:59;12.32;;;4.80;;
34505;SDS011;20748;42.632;23.198;2022-10-26T06:17:35;7.03;;;4.63;;
34505;SDS011;20748;42.632;23.198;2022-10-26T06:20:20;10.80;;;4.45;;
34505;SDS011;20748;42.632;23.198;2022-10-26T06:23:17;9.43;;;5.65;;
34505;SDS011;20748;42.632;23.198;2022-10-26T06:26:04;7.35;;;4.53;;
34505;SDS011;20748;42.632;23.198;2022-10-26T06:28:46;14.32;;;6.85;;
34505;SDS011;20748;42.632;23.198;2022-10-26T06:33:57;20.27;;;7.07;;
34505;SDS011;20748;42.632;23.198;2022-10-26T06:36:31;13.57;;;7.55;;
34505;SDS011;20748;42.632;23.198;2022-10-26T06:39:04;12.75;;;8.45;;
34505;SDS011;20748;42.632;23.198;2022-10-26T06:41:40;17.55;;;8.10;;
34505;SDS011;20748;42.632;23.198;2022-10-26T06:44:21;12.75;;;5.93;;
34505;SDS011;20748;42.632;23.198;2022-10-26T06:46:57;26.73;;;12.95;;
34505;SDS011;20748;42.632;23.198;2022-10-26T06:49:37;20.77;;;11.02;;
34505;SDS011;20748;42.632;23.198;2022-10-26T06:52:14;23.02;;;10.88;;
34505;SDS011;20748;42.632;23.198;2022-10-26T06:54:50;11.68;;;4.63;;
34505;SDS011;20748;42.632;23.198;2022-10-26T06:57:25;7.22;;;2.78;;
34505;SDS011;20748;42.632;23.198;2022-10-26T07:02:36;9.45;;;2.90;;
34505;SDS011;20748;42.632;23.198;2022-10-26T07:05:09;6.78;;;2.83;;
34505;SDS011;20748;42.632;23.198;2022-10-26T07:07:44;8.35;;;3.20;;
34505;SDS011;20748;42.632;23.198;2022-10-26T07:10:18;6.20;;;2.80;;
34505;SDS011;20748;42.632;23.198;2022-10-26T07:12:51;7.05;;;3.50;;
34505;SDS011;20748;42.632;23.198;2022-10-26T07:15:23;5.60;;;3.05;;
34505;SDS011;20748;42.632;23.198;2022-10-26T07:17:56;7.20;;;2.80;;
34505;SDS011;20748;42.632;23.198;2022-10-26T07:20:28;4.80;;;2.65;;
34505;SDS011;20748;42.632;23.198;2022-10-26T07:23:00;5.60;;;2.38;;
34505;SDS011;20748;42.632;23.198;2022-10-26T07:25:34;5.85;;;3.28;;
34505;SDS011;20748;42.632;23.198;2022-10-26T07:28:10;7.55;;;3.10;;
34505;SDS011;20748;42.632;23.198;2022-10-26T07:30:42;8.85;;;2.53;;
34505;SDS011;20748;42.632;23.198;2022-10-26T07:33:14;4.95;;;2.40;;
34505;SDS011;20748;42.632;23.198;2022-10-26T07:35:47;5.82;;;2.60;;
34505;SDS011;20748;42.632;23.198;2022-10-26T07:38:19;5.50;;;2.88;;
34505;SDS011;20748;42.632;23.198;2022-10-26T07:40:51;7.35;;;2.50;;
34505;SDS011;20748;42.632;23.198;2022-10-26T07:43:26;4.38;;;2.17;;
34505;SDS011;20748;42.632;23.198;2022-10-26T07:45:58;6.10;;;2.28;;
34505;SDS011;20748;42.632;23.198;2022-10-26T07:48:31;5.90;;;2.67;;
34505;SDS011;20748;42.632;23.198;2022-10-26T07:51:03;7.80;;;2.53;;
34505;SDS011;20748;42.632;23.198;2022-10-26T07:53:36;4.00;;;2.05;;
34505;SDS011;20748;42.632;23.198;2022-10-26T07:56:08;7.45;;;2.35;;
34505;SDS011;20748;42.632;23.198;2022-10-26T07:58:42;4.07;;;2.17;;
34505;SDS011;20748;42.632;23.198;2022-10-26T08:01:14;4.60;;;2.00;;
34505;SDS011;20748;42.632;23.198;2022-10-26T08:03:50;6.25;;;2.10;;
34505;SDS011;20748;42.632;23.198;2022-10-26T08:06:23;7.55;;;2.85;;
34505;SDS011;20748;42.632;23.198;2022-10-26T08:08:55;3.70;;;2.67;;
34505;SDS011;20748;42.632;23.198;2022-10-26T08:11:28;5.93;;;2.70;;
34505;SDS011;20748;42.632;23.198;2022-10-26T08:14:01;5.60;;;2.42;;
34505;SDS011;20748;42.632;23.198;2022-10-26T08:16:34;4.85;;;2.65;;
34505;SDS011;20748;42.632;23.198;2022-10-26T08:19:10;8.30;;;2.40;;
34505;SDS011;20748;42.632;23.198;2022-10-26T08:21:42;7.80;;;2.05;;
34505;SDS011;20748;42.632;23.198;2022-10-26T08:24:15;5.82;;;2.30;;
34505;SDS011;20748;42.632;23.198;2022-10-26T08:26:47;7.85;;;2.38;;
34505;SDS011;20748;42.632;23.198;2022-10-26T08:29:20;5.05;;;2.30;;
34505;SDS011;20748;42.632;23.198;2022-10-26T08:31:52;5.38;;;2.70;;
34505;SDS011;20748;42.632;23.198;2022-10-26T08:34:25;9.18;;;2.35;;
34505;SDS011;20748;42.632;23.198;2022-10-26T08:36:57;3.78;;;1.90;;
34505;SDS011;20748;42.632;23.198;2022-10-26T08:39:29;5.38;;;1.98;;
34505;SDS011;20748;42.632;23.198;2022-10-26T08:42:03;4.85;;;2.08;;
34505;SDS011;20748;42.632;23.198;2022-10-26T08:44:43;5.30;;;2.70;;
34505;SDS011;20748;42.632;23.198;2022-10-26T08:47:17;7.53;;;2.30;;
34505;SDS011;20748;42.632;23.198;2022-10-26T08:49:53;6.32;;;2.50;;
34505;SDS011;20748;42.632;23.198;2022-10-26T08:52:32;5.68;;;2.25;;
34505;SDS011;20748;42.632;23.198;2022-10-26T08:55:10;6.40;;;2.43;;
34505;SDS011;20748;42.632;23.198;2022-10-26T08:57:46;4.07;;;2.30;;
34505;SDS011;20748;42.632;23.198;2022-10-26T09:00:22;7.13;;;2.63;;
34505;SDS011;20748;42.632;23.198;2022-10-26T09:02:57;4.82;;;2.45;;
34505;SDS011;20748;42.632;23.198;2022-10-26T09:05:31;9.75;;;2.65;;
34505;SDS011;20748;42.632;23.198;2022-10-26T09:08:16;6.47;;;2.40;;
34505;SDS011;20748;42.632;23.198;2022-10-26T09:10:58;4.70;;;2.40;;
34505;SDS011;20748;42.632;23.198;2022-10-26T09:13:41;5.40;;;2.28;;
34505;SDS011;20748;42.632;23.198;2022-10-26T09:16:31;5.47;;;2.97;;
34505;SDS011;20748;42.632;23.198;2022-10-26T09:22:23;5.80;;;2.97;;
34505;SDS011;20748;42.632;23.198;2022-10-26T09:25:02;4.97;;;2.67;;
34505;SDS011;20748;42.632;23.198;2022-10-26T09:27:44;7.28;;;2.63;;
34505;SDS011;20748;42.632;23.198;2022-10-26T09:30:20;6.32;;;2.28;;
34505;SDS011;20748;42.632;23.198;2022-10-26T09:32:54;8.43;;;3.20;;
34505;SDS011;20748;42.632;23.198;2022-10-26T09:35:30;5.28;;;2.65;;
34505;SDS011;20748;42.632;23.198;2022-10-26T09:38:15;9.45;;;2.58;;
34505;SDS011;20748;42.632;23.198;2022-10-26T09:40:55;17.30;;;3.35;;
34505;SDS011;20748;42.632;23.198;2022-10-26T09:43:35;9.88;;;3.08;;
34505;SDS011;20748;42.632;23.198;2022-10-26T09:46:15;5.85;;;2.50;;
34505;SDS011;20748;42.632;23.198;2022-10-26T09:48:52;10.68;;;3.33;;
34505;SDS011;20748;42.632;23.198;2022-10-26T09:51:28;7.40;;;3.00;;
34505;SDS011;20748;42.632;23.198;2022-10-26T09:54:04;5.35;;;3.00;;
34505;SDS011;20748;42.632;23.198;2022-10-26T09:56:46;10.57;;;3.88;;
34505;SDS011;20748;42.632;23.198;2022-10-26T09:59:21;7.43;;;3.13;;
34505;SDS011;20748;42.632;23.198;2022-10-26T10:01:55;4.22;;;2.63;;
34505;SDS011;20748;42.632;23.198;2022-10-26T10:04:30;7.53;;;2.88;;
34505;SDS011;20748;42.632;23.198;2022-10-26T10:07:16;6.07;;;2.60;;
34505;SDS011;20748;42.632;23.198;2022-10-26T10:09:57;7.78;;;3.20;;
34505;SDS011;20748;42.632;23.198;2022-10-26T10:12:38;9.85;;;3.25;;
34505;SDS011;20748;42.632;23.198;2022-10-26T10:15:17;15.02;;;3.78;;
34505;SDS011;20748;42.632;23.198;2022-10-26T10:17:52;5.22;;;2.42;;
34505;SDS011;20748;42.632;23.198;2022-10-26T10:20:28;6.57;;;2.50;;
34505;SDS011;20748;42.632;23.198;2022-10-26T10:23:02;5.53;;;2.35;;
34505;SDS011;20748;42.632;23.198;2022-10-26T10:25:36;7.40;;;2.33;;
34505;SDS011;20748;42.632;23.198;2022-10-26T10:28:18;4.10;;;2.17;;
34505;SDS011;20748;42.632;23.198;2022-10-26T10:30:57;5.15;;;2.45;;
34505;SDS011;20748;42.632;23.198;2022-10-26T10:33:32;4.47;;;1.90;;
34505;SDS011;20748;42.632;23.198;2022-10-26T10:36:12;7.78;;;2.30;;
34505;SDS011;20748;42.632;23.198;2022-10-26T10:38:47;4.63;;;1.90;;
34505;SDS011;20748;42.632;23.198;2022-10-26T10:41:23;11.20;;;2.60;;
34505;SDS011;20748;42.632;23.198;2022-10-26T10:44:02;6.53;;;2.05;;
34505;SDS011;20748;42.632;23.198;2022-10-26T10:49:15;5.70;;;1.90;;
34505;SDS011;20748;42.632;23.198;2022-10-26T10:51:51;3.92;;;2.00;;
34505;SDS011;20748;42.632;23.198;2022-10-26T10:54:26;4.85;;;2.22;;
34505;SDS011;20748;42.632;23.198;2022-10-26T10:57:02;5.00;;;1.95;;
34505;SDS011;20748;42.632;23.198;2022-10-26T10:59:45;6.60;;;2.65;;
34505;SDS011;20748;42.632;23.198;2022-10-26T11:02:36;5.88;;;2.63;;
34505;SDS011;20748;42.632;23.198;2022-10-26T11:05:32;7.13;;;2.67;;
34505;SDS011;20748;42.632;23.198;2022-10-26T11:08:16;2.95;;;1.77;;
34505;SDS011;20748;42.632;23.198;2022-10-26T11:10:56;5.78;;;2.20;;
34505;SDS011;20748;42.632;23.198;2022-10-26T11:13:34;5.95;;;1.33;;
34505;SDS011;20748;42.632;23.198;2022-10-26T11:16:11;8.57;;;2.13;;
34505;SDS011;20748;42.632;23.198;2022-10-26T11:18:47;4.53;;;1.77;;
34505;SDS011;20748;42.632;23.198;2022-10-26T11:21:26;7.57;;;1.80;;
34505;SDS011;20748;42.632;23.198;2022-10-26T11:24:02;7.45;;;2.35;;
34505;SDS011;20748;42.632;23.198;2022-10-26T11:26:45;3.17;;;1.70;;
34505;SDS011;20748;42.632;23.198;2022-10-26T11:29:32;4.93;;;2.28;;
34505;SDS011;20748;42.632;23.198;2022-10-26T11:32:13;4.93;;;1.35;;
34505;SDS011;20748;42.632;23.198;2022-10-26T11:34:51;2.85;;;1.63;;
34505;SDS011;20748;42.632;23.198;2022-10-26T11:37:30;13.70;;;3.40;;
34505;SDS011;20748;42.632;23.198;2022-10-26T11:40:13;4.20;;;1.40;;
34505;SDS011;20748;42.632;23.198;2022-10-26T11:42:56;5.25;;;2.17;;
34505;SDS011;20748;42.632;23.198;2022-10-26T11:45:36;5.28;;;1.98;;
34505;SDS011;20748;42.632;23.198;2022-10-26T11:48:13;4.47;;;1.92;;
34505;SDS011;20748;42.632;23.198;2022-10-26T11:50:52;7.15;;;2.35;;
34505;SDS011;20748;42.632;23.198;2022-10-26T11:53:29;2.47;;;1.10;;
34505;SDS011;20748;42.632;23.198;2022-10-26T11:56:09;3.42;;;1.92;;
34505;SDS011;20748;42.632;23.198;2022-10-26T11:58:48;4.35;;;1.15;;
34505;SDS011;20748;42.632;23.198;2022-10-26T12:01:21;3.80;;;1.25;;
34505;SDS011;20748;42.632;23.198;2022-10-26T12:03:55;4.90;;;1.40;;
34505;SDS011;20748;42.632;23.198;2022-10-26T12:06:31;2.30;;;1.20;;
34505;SDS011;20748;42.632;23.198;2022-10-26T12:09:06;5.32;;;1.17;;
34505;SDS011;20748;42.632;23.198;2022-10-26T12:11:46;2.10;;;0.95;;
34505;SDS011;20748;42.632;23.198;2022-10-26T12:14:22;2.38;;;0.90;;
34505;SDS011;20748;42.632;23.198;2022-10-26T12:17:01;1.95;;;1.05;;
34505;SDS011;20748;42.632;23.198;2022-10-26T12:19:41;1.20;;;0.65;;
34505;SDS011;20748;42.632;23.198;2022-10-26T12:22:21;0.90;;;0.45;;
34505;SDS011;20748;42.632;23.198;2022-10-26T12:25:17;0.85;;;0.50;;
34505;SDS011;20748;42.632;23.198;2022-10-26T12:27:53;1.92;;;0.60;;
34505;SDS011;20748;42.632;23.198;2022-10-26T12:30:27;0.70;;;0.60;;
34505;SDS011;20748;42.632;23.198;2022-10-26T12:33:01;1.00;;;0.60;;
34505;SDS011;20748;42.632;23.198;2022-10-26T12:35:39;2.83;;;0.50;;
34505;SDS011;20748;42.632;23.198;2022-10-26T12:41:23;2.42;;;0.70;;
34505;SDS011;20748;42.632;23.198;2022-10-26T12:43:58;1.42;;;0.55;;
34505;SDS011;20748;42.632;23.198;2022-10-26T12:46:54;1.55;;;0.70;;
34505;SDS011;20748;42.632;23.198;2022-10-26T13:08:06;3.72;;;0.70;;
34505;SDS011;20748;42.632;23.198;2022-10-26T13:10:43;0.85;;;0.50;;
34505;SDS011;20748;42.632;23.198;2022-10-26T13:13:31;0.50;;;0.30;;
34505;SDS011;20748;42.632;23.198;2022-10-26T13:16:07;0.73;;;0.35;;
34505;SDS011;20748;42.632;23.198;2022-10-26T13:18:43;0.57;;;0.35;;
34505;SDS011;20748;42.632;23.198;2022-10-26T13:21:19;0.82;;;0.40;;
34505;SDS011;20748;42.632;23.198;2022-10-26T13:23:56;0.73;;;0.50;;
34505;SDS011;20748;42.632;23.198;2022-10-26T13:26:32;1.80;;;0.40;;
34505;SDS011;20748;42.632;23.198;2022-10-26T13:32:49;1.67;;;0.50;;
34505;SDS011;20748;42.632;23.198;2022-10-26T13:35:25;2.05;;;1.05;;
34505;SDS011;20748;42.632;23.198;2022-10-26T13:37:58;1.23;;;0.80;;
34505;SDS011;20748;42.632;23.198;2022-10-26T13:40:37;2.65;;;0.70;;
34505;SDS011;20748;42.632;23.198;2022-10-26T13:43:12;6.20;;;1.15;;
34505;SDS011;20748;42.632;23.198;2022-10-26T13:45:52;3.60;;;1.35;;
34505;SDS011;20748;42.632;23.198;2022-10-26T13:48:28;2.28;;;1.00;;
34505;SDS011;20748;42.632;23.198;2022-10-26T13:51:13;4.97;;;1.73;;
34505;SDS011;20748;42.632;23.198;2022-10-26T13:53:53;2.25;;;0.73;;
34505;SDS011;20748;42.632;23.198;2022-10-26T13:56:31;1.60;;;0.70;;
34505;SDS011;20748;42.632;23.198;2022-10-26T13:59:07;2.42;;;0.63;;
34505;SDS011;20748;42.632;23.198;2022-10-26T14:01:41;1.20;;;0.75;;
34505;SDS011;20748;42.632;23.198;2022-10-26T14:04:14;1.80;;;0.73;;
34505;SDS011;20748;42.632;23.198;2022-10-26T14:06:48;1.23;;;0.80;;
34505;SDS011;20748;42.632;23.198;2022-10-26T14:09:22;1.38;;;0.75;;
34505;SDS011;20748;42.632;23.198;2022-10-26T14:11:55;1.35;;;0.60;;
34505;SDS011;20748;42.632;23.198;2022-10-26T14:14:31;2.50;;;0.50;;
34505;SDS011;20748;42.632;23.198;2022-10-26T14:17:13;5.07;;;0.88;;
34505;SDS011;20748;42.632;23.198;2022-10-26T14:19:50;1.50;;;0.68;;
34505;SDS011;20748;42.632;23.198;2022-10-26T14:22:25;1.58;;;0.73;;
34505;SDS011;20748;42.632;23.198;2022-10-26T14:24:59;1.65;;;1.35;;
34505;SDS011;20748;42.632;23.198;2022-10-26T14:27:32;1.35;;;0.70;;
34505;SDS011;20748;42.632;23.198;2022-10-26T14:30:19;1.40;;;0.80;;
34505;SDS011;20748;42.632;23.198;2022-10-26T14:32:54;1.80;;;1.00;;
34505;SDS011;20748;42.632;23.198;2022-10-26T14:35:28;1.55;;;1.02;;
34505;SDS011;20748;42.632;23.198;2022-10-26T14:38:10;1.83;;;0.80;;
34505;SDS011;20748;42.632;23.198;2022-10-26T14:40:50;1.85;;;0.90;;
34505;SDS011;20748;42.632;23.198;2022-10-26T14:43:25;2.53;;;1.10;;
34505;SDS011;20748;42.632;23.198;2022-10-26T14:45:58;3.30;;;1.23;;
34505;SDS011;20748;42.632;23.198;2022-10-26T14:48:31;2.55;;;1.05;;
34505;SDS011;20748;42.632;23.198;2022-10-26T14:51:09;4.15;;;1.30;;
34505;SDS011;20748;42.632;23.198;2022-10-26T14:53:47;2.13;;;1.20;;
34505;SDS011;20748;42.632;23.198;2022-10-26T14:56:28;2.80;;;1.13;;
34505;SDS011;20748;42.632;23.198;2022-10-26T14:59:09;1.88;;;0.93;;
34505;SDS011;20748;42.632;23.198;2022-10-26T15:01:46;2.60;;;0.90;;
34505;SDS011;20748;42.632;23.198;2022-10-26T15:04:26;5.25;;;1.15;;
34505;SDS011;20748;42.632;23.198;2022-10-26T15:07:18;1.92;;;1.00;;
34505;SDS011;20748;42.632;23.198;2022-10-26T15:09:51;0.88;;;0.80;;
34505;SDS011;20748;42.632;23.198;2022-10-26T15:12:28;4.25;;;0.98;;
34505;SDS011;20748;42.632;23.198;2022-10-26T15:15:09;3.40;;;1.38;;
34505;SDS011;20748;42.632;23.198;2022-10-26T15:17:50;3.20;;;1.13;;
34505;SDS011;20748;42.632;23.198;2022-10-26T15:20:25;2.42;;;1.05;;
34505;SDS011;20748;42.632;23.198;2022-10-26T15:23:00;13.70;;;6.68;;
34505;SDS011;20748;42.632;23.198;2022-10-26T15:25:35;2.97;;;1.75;;
34505;SDS011;20748;42.632;23.198;2022-10-26T15:28:22;6.22;;;1.77;;
34505;SDS011;20748;42.632;23.198;2022-10-26T15:30:59;3.63;;;1.30;;
34505;SDS011;20748;42.632;23.198;2022-10-26T15:33:33;2.80;;;1.45;;
34505;SDS011;20748;42.632;23.198;2022-10-26T15:36:11;3.50;;;1.65;;
34505;SDS011;20748;42.632;23.198;2022-10-26T15:38:45;5.57;;;2.05;;
34505;SDS011;20748;42.632;23.198;2022-10-26T15:41:21;5.03;;;1.77;;
34505;SDS011;20748;42.632;23.198;2022-10-26T15:43:56;6.70;;;1.40;;
34505;SDS011;20748;42.632;23.198;2022-10-26T15:46:32;6.03;;;2.60;;
34505;SDS011;20748;42.632;23.198;2022-10-26T15:49:06;4.45;;;1.67;;
34505;SDS011;20748;42.632;23.198;2022-10-26T15:51:46;3.70;;;1.73;;
34505;SDS011;20748;42.632;23.198;2022-10-26T15:54:19;10.35;;;4.45;;
34505;SDS011;20748;42.632;23.198;2022-10-26T15:56:52;7.75;;;4.07;;
34505;SDS011;20748;42.632;23.198;2022-10-26T15:59:26;8.80;;;3.25;;
34505;SDS011;20748;42.632;23.198;2022-10-26T16:01:58;8.15;;;3.35;;
34505;SDS011;20748;42.632;23.198;2022-10-26T16:04:31;6.80;;;3.03;;
34505;SDS011;20748;42.632;23.198;2022-10-26T16:07:03;13.25;;;3.13;;
34505;SDS011;20748;42.632;23.198;2022-10-26T16:09:37;8.75;;;3.60;;